KAVK

Alva Regional Airport

Alva, Oklahoma, USA
METAR KAVK 201655Z AUTO 28003KT 8SM CLR 18/04 A3040 RMK AO2
Observed Flight Rules
Oct-20 @ 16:55 UTC (16 minutes ago) Visual Flight Rules
Wind Visibility Clouds
280° at 3 knots 8 miles
  • Clear skies
Temperatures Readings
Current 18°C / 64°F
Dewpoint 4°C / 39°F
Humidity 40%
Altimeter 30.4" Hg
Pressure 1029 hPa
Elevation 449
METAR KAVK 201655Z AUTO 28003KT 8SM CLR 18/04 A3040 RMK AO2
Observed Flight Rules
Oct-20 @ 16:55 UTC
(16 minutes ago)
VFR
Wind Visibility
280° at 3 knots 8 miles
Clouds
  • Clear skies
Temperature Dewpoint
18°C / 64°F 4°C / 39°F
Humidity Altimeter Pressure
40% 30.4" Hg 1029 hPa